Coyville, Kansas
Current Conditions -  °F | °C
As of 1:52 PM on Sunday 21 Dec 2014 (Local Time) from KCNU Reporting Station
Haze Haze  
Wind Chill: 38°   Ceiling: 900
Heat Index: 45°   Visibility: 6mi
Dew Point: 42°   Wind: 16mph
Humidity: 90%   Direction: 170°S
Pressure: 29.87"   Gusts: NA
Location:  37.69°N, 95.9°W
Report Text: KCNU 211952Z AUTO 17014KT 6SM BR OVC009 07/06 A2987 RMK AO2 SLP119 T00720056
Loading
Personal Weather Stations






























Interactive Weather Map New forecast layout! Learn more

10-Day Weather Forecast

Advertisements
Track Severe Weather on mobile